Dobrodošli na spletni strani vremenske postaje Senovo. Vse informacije so informativnega značaja, saj vremenska postaja ni del državne mreže meteoroloških postaj. OBVESTILO: Letni količini padavin navedeni na spletni strani je potrebno prišteti 98,1 mm, zaradi izgube podatkov.


Posebna pozornost v zvezi z vremenskimi dogajanji ni potrebna.    Posebna pozornost v zvezi z vremenskimi dogajanji ni potrebna.

Pogled proti Armezu več informacij Pogled proti Armezu


Lisca več informacij Lisca


Radar strel več informacij blitzortung!


Radar padavin več informacij rain snow radar


Obiščite še:

Template documentation
and downloads

And another site



Weather Underground, zgodovina - Tekstovno

Dnevni povzetek za Avgust 21, 2017 Enote:  Angleško    Metrično   Obe
« Predhodni Dan
Naslednji Dan »
Dnevni Tedenski Mesečni Letni Po meri
  Višja: Nižja: Povprečje:
Temperatura: 76.1 °F 46.9 °F 61 °F
Točka rosišča: 57.7 °F 44.4 °F 48.2 °F
Vlažnost: 95 % 37 % 67 %
Hitrost vetra: 5.1 mph 0 mph 1.4 mph
Sunki vetra: 12.3 mph - -
Veter:- - SE
Zračni tlak: 30.2 in 30.1 in -
Padavine: 0 in    
Historical Graphs
 
 
Tabelarni podarki za Avgust 21, 2017
Čas Temperatura Točka rosišča Zračni tlak Veter Hitrost vetra Sunki vetra Vlažnost Intenziteta padavin (urna)
00:01 55 °F 50.4 °F 30.2 in Calm     84 % 0 in
00:06 54.7 °F 49.8 °F 30.2 in Calm     84 % 0 in
00:11 54.5 °F 49.8 °F 30.2 in SW 0.6 mph 2.7 mph 84 % 0 in
00:16 54.3 °F 49.8 °F 30.2 in West 1 mph 2.7 mph 85 % 0 in
00:21 54.3 °F 49.8 °F 30.2 in NW 0.5 mph 2.5 mph 85 % 0 in
00:26 54.1 °F 49.6 °F 30.2 in WNW 0.1 mph 1.1 mph 85 % 0 in
00:31 54 °F 49.6 °F 30.2 in Calm   1.1 mph 85 % 0 in
00:36 53.8 °F 49.5 °F 30.2 in Calm     85 % 0 in
00:41 53.6 °F 49.3 °F 30.2 in North 0.4 mph 3.6 mph 85 % 0 in
00:46 53.4 °F 49.3 °F 30.2 in NW 1.4 mph 3.6 mph 86 % 0 in
00:51 53.2 °F 49.3 °F 30.2 in WNW 1.2 mph 3.4 mph 86 % 0 in
00:56 53.2 °F 49.3 °F 30.2 in NW 0.3 mph 2.9 mph 86 % 0 in
01:01 53.1 °F 48.9 °F 30.2 in NW 0.2 mph 1.3 mph 86 % 0 in
01:06 52.9 °F 48.7 °F 30.2 in WNW 0.4 mph 2.2 mph 86 % 0 in
01:11 52.7 °F 48.6 °F 30.2 in WNW 0.4 mph 2.2 mph 86 % 0 in
01:16 52.5 °F 48.7 °F 30.2 in Calm     87 % 0 in
01:21 52.3 °F 48.6 °F 30.2 in Calm     87 % 0 in
01:26 52.3 °F 48.4 °F 30.2 in NE 0.1 mph 1.3 mph 86 % 0 in
01:31 52.2 °F 48.4 °F 30.2 in NNE 0.3 mph 1.6 mph 87 % 0 in
01:32 52.2 °F 48.4 °F 30.2 in NNE 0.3 mph 1.6 mph 87 % 0 in
01:37 52 °F 48.6 °F 30.2 in NE 0.2 mph 1.6 mph 88 % 0 in
01:42 51.8 °F 48 °F 30.2 in Calm     87 % 0 in
01:47 51.6 °F 48.2 °F 30.2 in Calm     88 % 0 in
01:52 51.6 °F 48.2 °F 30.2 in Calm     88 % 0 in
01:57 51.4 °F 48 °F 30.2 in Calm     88 % 0 in
02:02 51.3 °F 48 °F 30.2 in Calm     89 % 0 in
02:07 51.1 °F 48 °F 30.2 in Calm     89 % 0 in
02:12 51.1 °F 48 °F 30.2 in Calm     89 % 0 in
02:17 50.9 °F 47.8 °F 30.2 in Calm     89 % 0 in
02:22 50.9 °F 47.8 °F 30.2 in Calm     89 % 0 in
02:27 50.7 °F 47.7 °F 30.2 in Calm     89 % 0 in
02:32 50.5 °F 47.5 °F 30.2 in Calm     89 % 0 in
02:37 50.4 °F 47.1 °F 30.2 in Calm     89 % 0 in
02:42 50.2 °F 47.1 °F 30.2 in Calm     89 % 0 in
02:47 50.2 °F 47.5 °F 30.2 in Calm     90 % 0 in
02:52 50.2 °F 47.5 °F 30.2 in Calm     90 % 0 in
02:57 50 °F 47.1 °F 30.2 in Calm     90 % 0 in
03:02 49.8 °F 46.9 °F 30.2 in NW 0.2 mph 2.2 mph 90 % 0 in
03:07 49.8 °F 46.9 °F 30.2 in WNW 0.4 mph 2.5 mph 90 % 0 in
03:12 49.6 °F 46.8 °F 30.2 in West 0.4 mph 2.5 mph 90 % 0 in
03:17 49.6 °F 46.8 °F 30.2 in West 0.2 mph 2 mph 90 % 0 in
03:22 49.5 °F 46.9 °F 30.2 in NW 0.3 mph 2.7 mph 91 % 0 in
03:27 49.5 °F 46.9 °F 30.2 in NNW 0.3 mph 2.7 mph 91 % 0 in
03:32 49.5 °F 46.9 °F 30.2 in Calm     91 % 0 in
03:37 49.3 °F 46.8 °F 30.2 in Calm     91 % 0 in
03:42 49.1 °F 46.6 °F 30.2 in Calm     91 % 0 in
03:47 49.1 °F 46.6 °F 30.2 in Calm     91 % 0 in
03:52 48.9 °F 46.4 °F 30.2 in Calm     91 % 0 in
03:57 48.9 °F 46.4 °F 30.2 in Calm     91 % 0 in
04:02 48.7 °F 46.2 °F 30.2 in Calm     91 % 0 in
04:07 48.7 °F 46.2 °F 30.2 in Calm     91 % 0 in
04:12 48.7 °F 46.2 °F 30.2 in Calm     91 % 0 in
04:17 48.6 °F 46 °F 30.2 in Calm     91 % 0 in
04:22 48.4 °F 45.9 °F 30.2 in Calm     91 % 0 in
04:27 48.4 °F 46.2 °F 30.2 in NNW 0.1 mph 2 mph 92 % 0 in
04:32 48.4 °F 46.2 °F 30.2 in NNW 0.1 mph 2 mph 92 % 0 in
04:37 48.2 °F 46 °F 30.2 in Calm     92 % 0 in
04:42 48 °F 45.9 °F 30.2 in Calm   1.3 mph 92 % 0 in
04:47 48.2 °F 46 °F 30.2 in NNW 0.1 mph 1.3 mph 92 % 0 in
04:52 48 °F 45.9 °F 30.2 in North 0.1 mph   92 % 0 in
04:57 47.8 °F 45.7 °F 30.2 in Calm     92 % 0 in
05:02 47.8 °F 45.7 °F 30.2 in Calm     92 % 0 in
05:07 47.8 °F 45.9 °F 30.2 in Calm     93 % 0 in
05:12 47.8 °F 45.9 °F 30.2 in Calm     93 % 0 in
05:17 47.7 °F 45.7 °F 30.2 in Calm     93 % 0 in
05:22 47.7 °F 45.7 °F 30.2 in Calm     93 % 0 in
05:28 47.7 °F 45.7 °F 30.2 in Calm     93 % 0 in
05:33 47.5 °F 45.7 °F 30.2 in Calm     93 % 0 in
05:38 47.5 °F 45.7 °F 30.2 in Calm   1.1 mph 93 % 0 in
05:43 47.5 °F 45.7 °F 30.2 in NW 0.1 mph 2 mph 93 % 0 in
05:48 47.3 °F 45.3 °F 30.2 in NW 0.1 mph 2 mph 93 % 0 in
05:53 47.3 °F 45.3 °F 30.2 in Calm     93 % 0 in
05:58 47.3 °F 45.3 °F 30.2 in Calm     93 % 0 in
06:03 47.3 °F 45.3 °F 30.2 in Calm     93 % 0 in
06:08 47.1 °F 45.1 °F 30.2 in Calm     93 % 0 in
06:13 47.1 °F 45.1 °F 30.2 in Calm     93 % 0 in
06:18 46.9 °F 45 °F 30.2 in Calm     93 % 0 in
06:23 47.1 °F 45.5 °F 30.2 in Calm     94 % 0 in
06:28 46.9 °F 45.3 °F 30.2 in Calm     94 % 0 in
06:33 46.9 °F 45.3 °F 30.2 in Calm     94 % 0 in
06:38 47.1 °F 45.5 °F 30.2 in Calm     94 % 0 in
06:43 47.1 °F 45.5 °F 30.2 in Calm     94 % 0 in
06:48 47.1 °F 45.5 °F 30.2 in Calm     94 % 0 in
06:53 47.3 °F 45.7 °F 30.2 in Calm     94 % 0 in
06:58 47.3 °F 45.7 °F 30.2 in Calm     94 % 0 in
07:03 47.5 °F 45.9 °F 30.2 in Calm     94 % 0 in
07:08 47.7 °F 46.2 °F 30.2 in Calm     95 % 0 in
07:13 47.8 °F 46.6 °F 30.2 in Calm     95 % 0 in
07:18 48 °F 46.8 °F 30.2 in Calm     95 % 0 in
07:23 48.4 °F 46.8 °F 30.2 in Calm     94 % 0 in
07:28 48.7 °F 47.1 °F 30.2 in Calm     94 % 0 in
07:33 48.9 °F 47.7 °F 30.2 in Calm     95 % 0 in
07:38 49.3 °F 47.8 °F 30.2 in Calm     95 % 0 in
07:43 49.6 °F 48.4 °F 30.2 in Calm     95 % 0 in
07:48 50 °F 48.6 °F 30.2 in East 0.2 mph 2.2 mph 95 % 0 in
07:53 50.7 °F 49.3 °F 30.2 in East 0.8 mph 2.2 mph 95 % 0 in
07:58 51.4 °F 50.2 °F 30.2 in East 1.1 mph 2.2 mph 95 % 0 in
08:03 51.8 °F 50.2 °F 30.2 in East 1.3 mph 2.5 mph 94 % 0 in
08:08 52.3 °F 50.7 °F 30.2 in East 1 mph 2.5 mph 94 % 0 in
08:13 52.9 °F 51.3 °F 30.2 in East 0.7 mph 2.2 mph 94 % 0 in
08:18 53.6 °F 51.6 °F 30.2 in East 0.9 mph 2.2 mph 93 % 0 in
08:23 54.1 °F 52.2 °F 30.2 in East 0.6 mph 2.2 mph 93 % 0 in
08:28 54.7 °F 52.3 °F 30.2 in East 0.2 mph 1.3 mph 92 % 0 in
08:33 55.4 °F 52.9 °F 30.2 in ESE 0.1 mph 1.6 mph 91 % 0 in
08:38 56.1 °F 53.4 °F 30.2 in East 0.2 mph 1.6 mph 91 % 0 in
08:43 56.8 °F 54 °F 30.2 in East 0.1 mph 1.6 mph 90 % 0 in
08:48 57.7 °F 54.5 °F 30.2 in ESE 0.9 mph 2.9 mph 89 % 0 in
08:53 58.5 °F 54.7 °F 30.2 in ESE 1.3 mph 2.9 mph 87 % 0 in
08:58 59.2 °F 55 °F 30.2 in ESE 0.7 mph 2.7 mph 86 % 0 in
09:03 60.1 °F 55.6 °F 30.2 in ESE 1 mph 2.9 mph 85 % 0 in
09:08 60.6 °F 55.8 °F 30.2 in ESE 1.3 mph 2.9 mph 84 % 0 in
09:13 61.2 °F 55.6 °F 30.2 in ESE 1 mph 2.9 mph 82 % 0 in
09:18 61.9 °F 56.3 °F 30.2 in ESE 1.4 mph 2.7 mph 82 % 0 in
09:23 62.2 °F 55.9 °F 30.2 in ESE 1.6 mph 2.9 mph 80 % 0 in
09:28 62.8 °F 56.1 °F 30.2 in ESE 1.6 mph 3.4 mph 79 % 0 in
09:33 63.5 °F 56.5 °F 30.2 in ESE 1.2 mph 3.4 mph 78 % 0 in
09:38 64 °F 57 °F 30.2 in SE 0.9 mph 2.9 mph 78 % 0 in
09:43 64.6 °F 57.2 °F 30.2 in SE 1.2 mph 2.9 mph 77 % 0 in
09:48 65.3 °F 57.6 °F 30.2 in SE 1.6 mph 3.8 mph 76 % 0 in
09:50 65.5 °F 57.7 °F 30.2 in SE 1.8 mph 3.8 mph 76 % 0 in
09:55 66.2 °F 57.7 °F 30.2 in SE 1.6 mph 3.8 mph 74 % 0 in
10:00 66.7 °F 57.4 °F 30.2 in SSE 1.6 mph 4 mph 72 % 0 in
10:05 67.5 °F 57.4 °F 30.2 in SSE 2.2 mph 4 mph 70 % 0 in
10:10 67.8 °F 56.5 °F 30.2 in South 2.6 mph 5.4 mph 67 % 0 in
10:15 68.2 °F 56.8 °F 30.2 in SSE 2.5 mph 5.4 mph 67 % 0 in
10:20 68.7 °F 56.5 °F 30.2 in ESE 1.5 mph 3.8 mph 65 % 0 in
10:25 68.9 °F 52.5 °F 30.2 in ENE 2 mph 7.2 mph 56 % 0 in
10:30 69.4 °F 52.2 °F 30.2 in East 3.4 mph 7.4 mph 54 % 0 in
10:35 69.8 °F 50.9 °F 30.2 in ESE 4.5 mph 10.5 mph 51 % 0 in
10:40 70.2 °F 49.5 °F 30.2 in ESE 4.9 mph 10.5 mph 48 % 0 in
10:45 70.3 °F 49.1 °F 30.2 in East 4.2 mph 8.1 mph 47 % 0 in
10:50 70.3 °F 49.1 °F 30.2 in East 4 mph 8.5 mph 47 % 0 in
10:55 70.5 °F 49.3 °F 30.2 in ESE 4.7 mph 8.5 mph 47 % 0 in
11:00 70.9 °F 49.1 °F 30.2 in ESE 4.9 mph 8.1 mph 46 % 0 in
11:05 71.1 °F 49.3 °F 30.2 in East 4.1 mph 7.8 mph 46 % 0 in
11:10 71.4 °F 50.2 °F 30.2 in ENE 3.8 mph 6.9 mph 47 % 0 in
11:15 71.4 °F 50.2 °F 30.2 in East 3.2 mph 6.5 mph 47 % 0 in
11:20 71.8 °F 49.8 °F 30.2 in ESE 2.7 mph 7.8 mph 46 % 0 in
11:25 72 °F 50 °F 30.2 in ESE 2.2 mph 7.8 mph 46 % 0 in
11:30 72.1 °F 50.2 °F 30.2 in ESE 2.3 mph 5.8 mph 46 % 0 in
11:32 72.1 °F 50.2 °F 30.2 in ESE 2.5 mph 5.8 mph 46 % 0 in
11:37 72.5 °F 50.5 °F 30.2 in SE 3.8 mph 6.3 mph 46 % 0 in
11:42 72.7 °F 50.7 °F 30.2 in ESE 3.5 mph 7.6 mph 46 % 0 in
11:43 72.7 °F 50.7 °F 30.2 in ESE 3.5 mph 7.6 mph 46 % 0 in
11:47 72.9 °F 50.4 °F 30.2 in SE 3.3 mph 7.6 mph 45 % 0 in
11:52 73 °F 50.4 °F 30.2 in SE 3.6 mph 6.5 mph 45 % 0 in
11:58 73.4 °F 50.7 °F 30.2 in SE 4.3 mph 7.6 mph 45 % 0 in
12:03 73.2 °F 50.5 °F 30.2 in SE 4.2 mph 7.6 mph 45 % 0 in
12:08 73.6 °F 50.9 °F 30.2 in East 3.5 mph 8.5 mph 45 % 0 in
12:13 73.6 °F 49.1 °F 30.2 in East 3.6 mph 8.5 mph 42 % 0 in
12:18 73.6 °F 49.6 °F 30.2 in East 2.7 mph 6 mph 43 % 0 in
12:23 73.8 °F 50.5 °F 30.2 in East 2.4 mph 4.7 mph 44 % 0 in
12:28 73.9 °F 50.5 °F 30.2 in ESE 2.9 mph 5.8 mph 44 % 0 in
12:33 74.3 °F 51.1 °F 30.2 in ESE 3.3 mph 6.3 mph 44 % 0 in
12:38 74.1 °F 50.2 °F 30.2 in East 3.2 mph 7.6 mph 43 % 0 in
12:43 74.5 °F 50.5 °F 30.2 in East 3.4 mph 7.6 mph 43 % 0 in
12:48 74.5 °F 49.8 °F 30.2 in ESE 3.7 mph 7.6 mph 42 % 0 in
12:53 75 °F 50.4 °F 30.2 in ESE 3.8 mph 6.3 mph 42 % 0 in
12:58 75.2 °F 50.5 °F 30.2 in SE 3.8 mph 5.8 mph 42 % 0 in
13:03 75.4 °F 50 °F 30.2 in ESE 3.9 mph 8.5 mph 41 % 0 in
13:08 75 °F 49.6 °F 30.2 in East 3.9 mph 10.1 mph 41 % 0 in
13:13 74.8 °F 49.6 °F 30.2 in East 3.5 mph 10.1 mph 41 % 0 in
13:18 75 °F 49.6 °F 30.2 in ENE 3.5 mph 8.1 mph 41 % 0 in
13:23 75.6 °F 50.2 °F 30.2 in ENE 3.6 mph 8.1 mph 41 % 0 in
13:28 75 °F 49.6 °F 30.2 in ENE 3.3 mph 6.5 mph 41 % 0 in
13:33 74.3 °F 48.4 °F 30.2 in ENE 3.3 mph 8.1 mph 40 % 0 in
13:38 73.8 °F 48.6 °F 30.2 in East 3.9 mph 8.5 mph 41 % 0 in
13:43 73.9 °F 48.7 °F 30.2 in East 4.8 mph 12.3 mph 41 % 0 in
13:48 73.6 °F 48.4 °F 30.1 in East 4 mph 12.3 mph 41 % 0 in
13:53 72.9 °F 47.1 °F 30.1 in ENE 3.6 mph 6.9 mph 40 % 0 in
13:58 72.7 °F 47.7 °F 30.1 in ENE 3.5 mph 6.9 mph 41 % 0 in
14:03 73.4 °F 48.4 °F 30.1 in East 2.6 mph 5.4 mph 41 % 0 in
14:08 74.1 °F 48.9 °F 30.1 in ESE 3 mph 6 mph 41 % 0 in
14:13 74.7 °F 49.5 °F 30.1 in SE 2.8 mph 6 mph 41 % 0 in
14:18 74.8 °F 48.9 °F 30.1 in ESE 2.4 mph 5.4 mph 40 % 0 in
14:25 74.8 °F 48.9 °F 30.1 in ESE 2.2 mph 3.4 mph 40 % 0 in
14:30 75.2 °F 49.3 °F 30.1 in East 3.5 mph 7.6 mph 40 % 0 in
14:35 75 °F 49.1 °F 30.1 in East 3.6 mph 7.6 mph 40 % 0 in
14:40 75.2 °F 48.6 °F 30.1 in ESE 3.8 mph 8.7 mph 39 % 0 in
14:45 75.7 °F 49.6 °F 30.1 in ESE 4 mph 8.7 mph 40 % 0 in
14:50 76.1 °F 50 °F 30.1 in ESE 4.5 mph 7.8 mph 40 % 0 in
14:55 75.9 °F 49.8 °F 30.1 in ESE 5 mph 8.7 mph 40 % 0 in
15:00 75.2 °F 48.6 °F 30.1 in East 4.4 mph 8.7 mph 39 % 0 in
15:05 75 °F 49.6 °F 30.1 in East 3.1 mph 7.4 mph 41 % 0 in
15:11 75 °F 49.1 °F 30.1 in ENE 2.8 mph 7.4 mph 40 % 0 in
15:16 74.8 °F 48.2 °F 30.1 in NE 3.3 mph 6 mph 39 % 0 in
15:21 74.7 °F 48 °F 30.1 in NNE 3.2 mph 6 mph 39 % 0 in
15:26 75.2 °F 48.6 °F 30.1 in NNE 2.7 mph 6 mph 39 % 0 in
15:31 75.6 °F 48.9 °F 30.1 in ENE 2.9 mph 6 mph 39 % 0 in
15:36 75.6 °F 48.9 °F 30.1 in East 3.4 mph 8.5 mph 39 % 0 in
15:41 75.7 °F 48.9 °F 30.1 in ENE 3.7 mph 8.5 mph 39 % 0 in
15:46 75.9 °F 49.3 °F 30.1 in ENE 5 mph 10.1 mph 39 % 0 in
15:51 75.7 °F 48.9 °F 30.1 in ENE 5.1 mph 10.1 mph 39 % 0 in
15:56 74.8 °F 48.2 °F 30.1 in ENE 3.6 mph 7.4 mph 39 % 0 in
16:01 75 °F 49.1 °F 30.1 in East 2.7 mph 4.9 mph 40 % 0 in
16:06 74.8 °F 48.9 °F 30.1 in East 3 mph 7.4 mph 40 % 0 in
16:11 74.7 °F 48 °F 30.1 in NE 2.5 mph 7.4 mph 39 % 0 in
16:16 74.7 °F 48 °F 30.1 in NNE 1.9 mph 5.8 mph 39 % 0 in
16:21 74.8 °F 48.2 °F 30.1 in East 2.1 mph 6.5 mph 39 % 0 in
16:26 75.2 °F 48.6 °F 30.1 in East 2.7 mph 8.1 mph 39 % 0 in
16:33 75.2 °F 48.6 °F 30.1 in East 3.2 mph 7.6 mph 39 % 0 in
16:39 74.7 °F 48 °F 30.1 in East 3.9 mph 7.6 mph 39 % 0 in
16:44 74.5 °F 47.8 °F 30.1 in East 3.6 mph 7.6 mph 39 % 0 in
16:49 74.5 °F 47.8 °F 30.1 in East 3.5 mph 6.7 mph 39 % 0 in
16:54 74.3 °F 46.9 °F 30.1 in ENE 3.4 mph 6.5 mph 38 % 0 in
16:59 74.5 °F 47.8 °F 30.1 in ENE 2.6 mph 6.3 mph 39 % 0 in
17:04 74.7 °F 48 °F 30.1 in ENE 3.3 mph 8.7 mph 39 % 0 in
17:09 74.7 °F 48 °F 30.1 in ENE 4.2 mph 8.7 mph 39 % 0 in
17:14 74.7 °F 48 °F 30.1 in East 4 mph 7.6 mph 39 % 0 in
17:19 74.3 °F 46.9 °F 30.1 in East 3 mph 7.6 mph 38 % 0 in
17:24 73.9 °F 46 °F 30.1 in NE 2.3 mph 6 mph 37 % 0 in
17:29 73.6 °F 45.7 °F 30.1 in NE 2.9 mph 6 mph 37 % 0 in
17:34 73.4 °F 45.5 °F 30.1 in NNE 3 mph 5.8 mph 37 % 0 in
17:39 73.6 °F 46.4 °F 30.1 in NE 2.8 mph 7.4 mph 38 % 0 in
17:40 73.6 °F 46.4 °F 30.1 in ENE 2.8 mph 7.4 mph 38 % 0 in
17:45 73.6 °F 46.4 °F 30.1 in ENE 2.8 mph 7.4 mph 38 % 0 in
17:50 73.4 °F 46.2 °F 30.1 in East 3 mph 6 mph 38 % 0 in
17:55 73.2 °F 46.8 °F 30.1 in East 3 mph 7.2 mph 39 % 0 in
18:00 72.7 °F 45.7 °F 30.1 in ENE 2.9 mph 7.2 mph 38 % 0 in
18:05 72.3 °F 46 °F 30.1 in ENE 2.9 mph 6.3 mph 39 % 0 in
18:10 72 °F 45.7 °F 30.1 in East 3 mph 6.5 mph 39 % 0 in
18:13 71.8 °F 45.5 °F 30.1 in ENE 2.9 mph 6.5 mph 39 % 0 in
18:18 71.4 °F 45.9 °F 30.1 in ENE 2.6 mph 5.6 mph 40 % 0 in
18:23 71.1 °F 45.5 °F 30.1 in ENE 1.7 mph 5.6 mph 40 % 0 in
18:28 70.7 °F 45.1 °F 30.1 in East 0.7 mph 2.9 mph 40 % 0 in
18:33 70.5 °F 45.7 °F 30.1 in East 0.7 mph 2.9 mph 41 % 0 in
18:38 70.2 °F 45.3 °F 30.1 in ENE 1.2 mph 5.4 mph 41 % 0 in
18:43 70 °F 44.4 °F 30.1 in ENE 2.6 mph 7.8 mph 40 % 0 in
18:48 69.8 °F 44.4 °F 30.1 in ENE 3.8 mph 7.8 mph 40 % 0 in
18:53 69.6 °F 45 °F 30.1 in ENE 3.7 mph 7.4 mph 41 % 0 in
18:58 69.3 °F 44.4 °F 30.1 in ENE 2 mph 6.9 mph 41 % 0 in
19:03 69.1 °F 45 °F 30.1 in ENE 1.1 mph 3.4 mph 42 % 0 in
19:09 68.5 °F 44.4 °F 30.1 in ENE 1.1 mph 3.4 mph 42 % 0 in
19:13 68 °F 44.8 °F 30.1 in NE 1.3 mph 3.8 mph 43 % 0 in
19:18 67.6 °F 45 °F 30.1 in NE 1.7 mph 3.8 mph 44 % 0 in
19:23 67.1 °F 45.7 °F 30.1 in NNE 0.9 mph 3.1 mph 46 % 0 in
19:29 66.4 °F 45 °F 30.1 in Calm   1.1 mph 46 % 0 in
19:34 66 °F 45.1 °F 30.1 in WSW 0.3 mph 3.4 mph 47 % 0 in
19:39 65.1 °F 45 °F 30.1 in West 0.7 mph 3.4 mph 48 % 0 in
19:44 64.4 °F 45.9 °F 30.1 in WNW 0.4 mph 2.5 mph 51 % 0 in
19:49 64 °F 46 °F 30.1 in Calm     52 % 0 in
19:54 63.1 °F 46.2 °F 30.1 in Calm     54 % 0 in
19:59 62.4 °F 46.6 °F 30.1 in Calm     56 % 0 in
20:04 61.9 °F 46.9 °F 30.1 in WNW 0.6 mph 2.7 mph 58 % 0 in
20:09 61.3 °F 46.9 °F 30.1 in WNW 0.6 mph 2.7 mph 59 % 0 in
20:14 60.8 °F 46.4 °F 30.1 in North 0.6 mph 2.9 mph 59 % 0 in
20:19 60.4 °F 46.6 °F 30.2 in North 0.6 mph 2.9 mph 60 % 0 in
20:24 59.7 °F 46.8 °F 30.2 in NNW 0.8 mph 3.8 mph 62 % 0 in
20:29 59.4 °F 47.1 °F 30.2 in NNE 1.2 mph 3.8 mph 64 % 0 in
20:34 59 °F 46.8 °F 30.2 in NE 0.6 mph 2.2 mph 64 % 0 in
20:39 58.6 °F 46.9 °F 30.2 in West 0.1 mph 2.2 mph 65 % 0 in
20:44 58.1 °F 46.8 °F 30.2 in Calm     66 % 0 in
20:45 58.1 °F 46.8 °F 30.2 in Calm     66 % 0 in
20:50 57.7 °F 46.9 °F 30.2 in Calm     67 % 0 in
20:55 57.4 °F 46.6 °F 30.2 in Calm     67 % 0 in
21:00 57 °F 46.2 °F 30.2 in Calm     67 % 0 in
21:05 56.7 °F 46.6 °F 30.2 in Calm   1.1 mph 69 % 0 in
21:10 56.5 °F 46.4 °F 30.2 in Calm   1.1 mph 69 % 0 in
21:15 56.3 °F 46.6 °F 30.2 in Calm     70 % 0 in
21:20 55.9 °F 46.2 °F 30.2 in Calm     70 % 0 in
21:25 55.8 °F 46 °F 30.2 in Calm     70 % 0 in
21:30 55.4 °F 46.2 °F 30.2 in Calm     71 % 0 in
21:35 55.2 °F 46.2 °F 30.2 in Calm     72 % 0 in
21:40 55 °F 46.2 °F 30.2 in Calm     72 % 0 in
21:45 54.7 °F 45.9 °F 30.2 in Calm     72 % 0 in
21:50 54.5 °F 45.7 °F 30.2 in Calm     72 % 0 in
21:55 54.3 °F 45.9 °F 30.2 in Calm     73 % 0 in
22:00 54.1 °F 45.7 °F 30.2 in Calm     73 % 0 in
22:05 54 °F 45.9 °F 30.2 in Calm     74 % 0 in
22:10 53.8 °F 45.7 °F 30.2 in Calm   1.1 mph 74 % 0 in
22:15 53.6 °F 45.5 °F 30.2 in Calm   1.1 mph 74 % 0 in
22:20 53.2 °F 45.1 °F 30.2 in Calm     74 % 0 in
22:25 53.1 °F 45.3 °F 30.2 in Calm     75 % 0 in
22:30 53.1 °F 45.3 °F 30.2 in Calm     75 % 0 in
22:35 52.9 °F 45.1 °F 30.2 in Calm     75 % 0 in
22:40 52.7 °F 45 °F 30.2 in West 0.1 mph 1.6 mph 75 % 0 in
22:45 52.5 °F 45.1 °F 30.2 in West 0.2 mph 1.6 mph 76 % 0 in
22:50 52.3 °F 45 °F 30.2 in West 0.1 mph 1.3 mph 76 % 0 in
22:55 52.3 °F 45 °F 30.2 in Calm     76 % 0 in
23:00 52 °F 45 °F 30.2 in Calm   0.9 mph 77 % 0 in
23:05 52 °F 45 °F 30.2 in Calm   1.1 mph 77 % 0 in
23:10 51.8 °F 45.1 °F 30.2 in Calm   1.1 mph 78 % 0 in
23:15 51.8 °F 45.5 °F 30.2 in Calm     79 % 0 in
23:20 51.6 °F 45.7 °F 30.2 in Calm     80 % 0 in
23:25 51.4 °F 45.5 °F 30.2 in Calm     80 % 0 in
23:30 51.3 °F 45.3 °F 30.2 in Calm     80 % 0 in
23:32 51.3 °F 45.3 °F 30.2 in Calm     80 % 0 in
23:37 51.1 °F 45.5 °F 30.2 in Calm     81 % 0 in
23:43 50.9 °F 45.3 °F 30.2 in Calm     81 % 0 in
23:48 50.9 °F 45.3 °F 30.2 in Calm     81 % 0 in
23:53 50.7 °F 44.8 °F 30.2 in Calm     80 % 0 in
23:58 50.5 °F 45 °F 30.2 in Calm     81 % 0 in
Vremenska postaja Senovo
Podatki zbrani iz Weather Underground - 3 mb

Script developed by  Jim McMurry - jmcmurry@mwt.net Adapted for the template by  Wim van der Kuil - Leuven-Template.eu

Vremenski podatki so objavljeni na:

WeatherCloud

Weather Underground

AWEKAS

HAMweather, WeatherForYou, PWS Weather

MapView

Geostik

Slovenia weather network

Oprema, ki se uporablja:

Vremenski program
Cumulus

Cumulus